Time;durP1;ratioP1;P1;durP2;ratioP2;P2;SDS_P1;SDS_P2;PMS_P1;PMS_P2;Temp;Humidity;BMP_temperature;BMP_pressure;BME280_temperature;BME280_humidity;BME280_pressure;Samples;Min_cycle;Max_cycle;Signal;HPM_P1;HPM_P2
2022/07/10 00:02:08;;;;;;;32.40;20.90;;;;;;;16.51;91.19;94761.44;5110702;28;20707;-75
2022/07/10 00:04:33;;;;;;;19.93;13.67;;;;;;;16.51;90.66;94770.22;5092645;28;20176;-74
2022/07/10 00:07:01;;;;;;;13.30;9.30;;;;;;;16.46;90.97;94758.72;5110847;28;20184;-74
2022/07/10 00:09:28;;;;;;;13.37;9.87;;;;;;;16.42;91.10;94757.63;5110809;28;20235;-75
2022/07/10 00:11:53;;;;;;;11.33;9.57;;;;;;;16.21;91.83;94754.72;5110604;28;20184;-74
2022/07/10 00:14:20;;;;;;;11.90;9.40;;;;;;;16.08;92.90;94756.97;5110835;28;20184;-75
2022/07/10 00:16:45;;;;;;;27.37;18.40;;;;;;;15.90;92.96;94720.91;5111011;28;20177;-74
2022/07/10 00:19:11;;;;;;;22.10;15.07;;;;;;;16.22;92.92;94755.53;5110726;28;20246;-75
2022/07/10 00:21:36;;;;;;;17.07;11.23;;;;;;;16.09;92.82;94751.38;5110448;28;20175;-74
2022/07/10 00:24:02;;;;;;;15.47;10.73;;;;;;;16.10;92.89;94757.50;5110495;28;20181;-74
2022/07/10 00:26:27;;;;;;;19.17;9.60;;;;;;;16.13;92.86;94752.50;5110548;28;20173;-75
2022/07/10 00:28:53;;;;;;;18.57;12.37;;;;;;;15.98;93.48;94746.22;5110487;28;20177;-74
2022/07/10 00:31:19;;;;;;;14.33;9.27;;;;;;;16.11;93.20;94746.63;5110709;28;20262;-74
2022/07/10 00:33:44;;;;;;;26.97;16.77;;;;;;;16.20;92.87;94747.81;5110721;28;20251;-74
2022/07/10 00:36:10;;;;;;;17.63;12.17;;;;;;;16.25;92.51;94740.97;5110942;28;20565;-74
2022/07/10 00:38:35;;;;;;;21.77;17.47;;;;;;;16.36;91.86;94747.97;5110546;28;20211;-74
2022/07/10 00:41:00;;;;;;;54.03;42.73;;;;;;;16.40;91.58;94749.09;5110198;28;20229;-75
2022/07/10 00:43:26;;;;;;;44.90;36.17;;;;;;;16.34;91.64;94744.78;5110452;28;20181;-74
2022/07/10 00:45:51;;;;;;;39.67;27.47;;;;;;;16.20;91.52;94731.06;5110646;28;20176;-74
2022/07/10 00:48:17;;;;;;;27.13;19.53;;;;;;;16.28;91.83;94745.75;5110471;28;20181;-74
2022/07/10 00:50:45;;;;;;;37.00;22.83;;;;;;;16.31;91.59;94737.31;5110735;28;20181;-74
2022/07/10 00:53:12;;;;;;;20.50;13.70;;;;;;;16.16;91.96;94736.09;5110437;28;20176;-74
2022/07/10 00:55:38;;;;;;;15.63;10.57;;;;;;;16.16;92.10;94733.44;5110470;28;20177;-74
2022/07/10 00:58:07;;;;;;;20.83;14.03;;;;;;;16.23;92.01;94736.69;5110640;28;20196;-74
2022/07/10 01:00:33;;;;;;;15.23;10.27;;;;;;;16.28;91.73;94735.13;5103241;28;20224;-74
2022/07/10 01:02:58;;;;;;;11.23;8.50;;;;;;;16.36;91.07;94732.84;5114437;28;20226;-74
2022/07/10 01:05:24;;;;;;;24.23;15.00;;;;;;;16.30;91.17;94736.50;5114520;28;20181;-75
2022/07/10 01:07:49;;;;;;;12.00;9.40;;;;;;;16.15;91.46;94736.34;5114019;28;20180;-74
2022/07/10 01:10:14;;;;;;;10.40;8.53;;;;;;;16.05;92.33;94730.91;5114056;28;20173;-74
2022/07/10 01:12:40;;;;;;;16.17;10.73;;;;;;;15.98;92.57;94727.63;5114023;28;20225;-74
2022/07/10 01:15:06;;;;;;;13.60;10.20;;;;;;;15.83;92.62;94704.34;5113981;28;20177;-74
2022/07/10 01:17:32;;;;;;;11.67;9.03;;;;;;;15.93;93.14;94725.69;5113932;28;20181;-75
2022/07/10 01:19:58;;;;;;;23.57;16.67;;;;;;;15.98;93.44;94723.13;5095522;28;20230;-75
2022/07/10 01:22:23;;;;;;;16.13;9.30;;;;;;;15.96;93.36;94719.91;5095569;28;20218;-74
2022/07/10 01:24:49;;;;;;;24.47;15.33;;;;;;;15.97;93.33;94716.22;5113914;28;20198;-74
2022/07/10 01:27:14;;;;;;;13.43;9.90;;;;;;;16.04;93.23;94718.66;5113711;28;20173;-75
2022/07/10 01:29:39;;;;;;;15.73;9.00;;;;;;;15.57;93.37;94650.13;5114105;28;20558;-75
2022/07/10 01:32:05;;;;;;;17.00;10.20;;;;;;;15.92;93.88;94713.47;5095494;28;20192;-74
2022/07/10 01:34:31;;;;;;;12.83;9.47;;;;;;;15.95;94.09;94710.34;5113757;28;20334;-75
2022/07/10 01:36:56;;;;;;;13.53;9.23;;;;;;;15.85;93.96;94704.91;5113811;28;20191;-74
2022/07/10 01:39:22;;;;;;;13.53;8.93;;;;;;;15.93;94.28;94704.47;5113820;28;20226;-74
2022/07/10 01:41:47;;;;;;;13.13;9.03;;;;;;;16.01;94.00;94701.38;5113852;28;20220;-75
2022/07/10 01:44:13;;;;;;;12.60;8.57;;;;;;;16.08;92.99;94703.84;5113648;28;20180;-74
2022/07/10 01:46:45;;;;;;;14.70;9.23;;;;;;;16.07;93.11;94703.06;5113577;28;20262;-74
2022/07/10 01:49:11;;;;;;;10.40;8.10;;;;;;;16.03;92.85;94707.25;5118515;27;20176;-75
2022/07/10 01:51:36;;;;;;;12.43;8.80;;;;;;;16.08;92.88;94707.31;5127636;27;20551;-75
2022/07/10 01:54:02;;;;;;;10.37;8.90;;;;;;;16.12;92.82;94710.25;5123576;27;20710;-75
2022/07/10 01:56:27;;;;;;;8.90;7.70;;;;;;;16.22;92.09;94711.19;5122890;27;20193;-75
2022/07/10 01:58:52;;;;;;;10.33;8.47;;;;;;;16.04;92.40;94705.38;5127962;27;20200;-74
2022/07/10 02:01:18;;;;;;;11.80;8.37;;;;;;;16.04;92.06;94703.53;5133706;27;20172;-75
2022/07/10 02:06:27;;;;;;;9.80;8.00;;;;;;;16.14;91.81;94693.03;5133592;27;20189;-74
2022/07/10 02:08:53;;;;;;;11.63;9.17;;;;;;;16.17;91.73;94691.75;5133573;27;20595;-74
2022/07/10 02:11:19;;;;;;;10.30;7.63;;;;;;;16.23;91.16;94698.72;5132585;27;20184;-75
2022/07/10 02:13:44;;;;;;;10.47;8.03;;;;;;;16.21;91.25;94698.16;5114913;27;20551;-74
2022/07/10 02:16:10;;;;;;;12.17;8.90;;;;;;;16.11;91.02;94679.44;5133574;27;20184;-75
2022/07/10 02:18:36;;;;;;;17.37;8.40;;;;;;;16.01;91.92;94688.09;5133423;27;20196;-74
2022/07/10 02:21:02;;;;;;;10.00;8.23;;;;;;;16.00;91.68;94688.38;5133246;27;20335;-75
2022/07/10 02:23:28;;;;;;;16.73;8.47;;;;;;;16.00;91.74;94688.38;5133431;27;20184;-74
2022/07/10 02:25:53;;;;;;;12.63;8.43;;;;;;;15.94;92.20;94690.13;5133494;27;21022;-74
2022/07/10 02:28:19;;;;;;;10.47;8.67;;;;;;;15.81;92.65;94688.69;5133008;27;20188;-75
2022/07/10 02:30:44;;;;;;;11.17;8.83;;;;;;;15.89;92.59;94691.94;5133015;27;20251;-75
2022/07/10 02:33:09;;;;;;;13.90;8.63;;;;;;;15.84;92.69;94692.66;5133107;27;20632;-75
2022/07/10 02:35:35;;;;;;;9.80;8.80;;;;;;;15.89;92.62;94691.94;5132911;27;20188;-74
2022/07/10 02:38:00;;;;;;;12.53;7.90;;;;;;;15.87;92.34;94680.75;5132991;27;20203;-75
2022/07/10 02:40:26;;;;;;;11.73;8.90;;;;;;;15.67;92.89;94678.66;5132544;27;20224;-75
2022/07/10 02:42:51;;;;;;;10.40;8.73;;;;;;;15.63;93.28;94683.66;5132889;27;20168;-75
2022/07/10 02:45:17;;;;;;;9.90;8.90;;;;;;;15.74;93.12;94684.59;5133073;27;20180;-74
2022/07/10 02:47:42;;;;;;;13.13;9.87;;;;;;;15.63;92.90;94672.25;5132979;27;20176;-75
2022/07/10 02:50:08;;;;;;;10.80;8.57;;;;;;;15.76;92.83;94693.09;5132493;27;20629;-74
2022/07/10 02:52:34;;;;;;;10.37;8.23;;;;;;;15.82;92.65;94692.94;5128365;27;20204;-74
2022/07/10 02:54:59;;;;;;;13.70;9.47;;;;;;;15.92;92.31;94696.75;5112187;28;20627;-75
2022/07/10 02:57:24;;;;;;;9.60;7.57;;;;;;;15.81;92.18;94696.63;5112160;28;20226;-75
2022/07/10 02:59:50;;;;;;;9.47;7.10;;;;;;;15.75;92.67;94702.91;5112076;28;20197;-75
2022/07/10 03:02:16;;;;;;;8.83;7.93;;;;;;;15.62;92.96;94699.84;5111987;28;20260;-75
2022/07/10 03:04:41;;;;;;;9.53;8.20;;;;;;;15.66;93.02;94708.91;5111893;28;20169;-74
2022/07/10 03:07:07;;;;;;;12.13;8.87;;;;;;;15.69;93.07;94709.22;5111693;28;20571;-75
2022/07/10 03:09:32;;;;;;;11.13;8.43;;;;;;;15.66;93.23;94714.19;5111875;28;20187;-75
2022/07/10 03:11:58;;;;;;;11.73;8.70;;;;;;;15.70;93.10;94718.78;5111705;28;20181;-75
2022/07/10 03:14:23;;;;;;;12.87;8.10;;;;;;;15.81;92.87;94709.13;5111940;28;20259;-75
2022/07/10 03:16:48;;;;;;;14.33;7.93;;;;;;;15.90;92.03;94715.59;5111561;28;20642;-75
2022/07/10 03:19:14;;;;;;;10.23;7.47;;;;;;;15.84;91.70;94698.78;5111496;28;20222;-75
2022/07/10 03:21:40;;;;;;;10.93;7.67;;;;;;;16.07;91.18;94724.31;5093382;28;20278;-74
2022/07/10 03:24:05;;;;;;;9.80;7.60;;;;;;;16.11;90.81;94721.94;5111205;28;20642;-74
2022/07/10 03:26:31;;;;;;;16.23;8.27;;;;;;;16.05;91.02;94722.94;5111424;28;20203;-75
2022/07/10 03:28:56;;;;;;;9.87;7.43;;;;;;;16.07;91.10;94726.97;5111577;28;20655;-75
2022/07/10 03:31:22;;;;;;;11.57;7.77;;;;;;;15.98;91.76;94717.00;5111634;28;20165;-75
2022/07/10 03:33:48;;;;;;;12.50;7.57;;;;;;;16.05;91.59;94726.41;5111783;28;20177;-75
2022/07/10 03:36:14;;;;;;;11.97;7.77;;;;;;;15.89;91.66;94700.72;5111359;28;20268;-75
2022/07/10 03:38:40;;;;;;;10.13;8.13;;;;;;;16.06;91.64;94725.34;5111330;28;20207;-75
2022/07/10 03:41:05;;;;;;;9.10;7.60;;;;;;;16.06;91.47;94698.00;5111039;28;20217;-75
2022/07/10 03:43:31;;;;;;;10.07;8.40;;;;;;;16.36;91.04;94716.09;5110945;28;20241;-77
2022/07/10 03:45:57;;;;;;;11.67;7.73;;;;;;;16.35;89.91;94704.66;5110423;28;20250;-77
2022/07/10 03:48:23;;;;;;;12.97;7.93;;;;;;;16.35;89.83;94701.19;5114240;27;20690;-77
2022/07/10 03:50:52;;;;;;;11.67;8.20;;;;;;;16.38;90.21;94711.34;5113238;27;20669;-77
2022/07/10 03:53:18;;;;;;;8.53;7.50;;;;;;;16.40;90.27;94719.88;5125762;27;20176;-77
2022/07/10 03:55:43;;;;;;;11.27;7.77;;;;;;;16.58;90.06;94716.88;5093260;28;20181;-77
2022/07/10 03:58:09;;;;;;;9.30;7.70;;;;;;;16.65;89.29;94706.88;5120371;27;20554;-77
2022/07/10 04:00:35;;;;;;;10.87;7.43;;;;;;;16.81;88.88;94713.13;5117833;27;20196;-76
2022/07/10 04:03:02;;;;;;;10.38;7.15;;;;;;;16.82;88.03;94714.72;5124509;27;20544;-76
2022/07/10 04:05:29;;;;;;;9.90;7.80;;;;;;;16.77;88.29;94715.50;5119628;27;20611;-76
2022/07/10 04:07:56;;;;;;;10.03;7.77;;;;;;;16.80;88.58;94707.00;5131450;27;20204;-76
2022/07/10 04:10:22;;;;;;;8.53;6.87;;;;;;;17.03;88.15;94707.72;5131658;27;20174;-76
2022/07/10 04:12:48;;;;;;;11.93;8.18;;;;;;;17.25;87.24;94711.06;5131794;27;20207;-76
2022/07/10 04:15:14;;;;;;;8.82;7.93;;;;;;;17.43;86.93;94709.88;5131726;27;20212;-76
2022/07/10 04:17:39;;;;;;;9.98;7.15;;;;;;;17.50;85.38;94705.09;5124896;28;20180;-76
2022/07/10 04:20:05;;;;;;;13.65;7.78;;;;;;;17.56;85.49;94704.88;5122197;28;20287;-76
2022/07/10 04:22:31;;;;;;;9.27;7.30;;;;;;;17.72;85.87;94700.50;5131394;28;20626;-76
2022/07/10 04:24:56;;;;;;;8.40;6.70;;;;;;;17.88;84.36;94702.16;5131499;28;20209;-76
2022/07/10 04:27:21;;;;;;;13.13;8.23;;;;;;;18.03;83.31;94704.06;5131545;28;20604;-76
2022/07/10 04:29:48;;;;;;;7.63;6.55;;;;;;;18.16;83.26;94700.13;5131648;28;20824;-76
2022/07/10 04:32:16;;;;;;;8.25;6.80;;;;;;;18.40;82.59;94701.28;5121074;28;20581;-76
2022/07/10 04:34:42;;;;;;;7.68;6.88;;;;;;;18.61;82.15;94691.47;5112441;28;20211;-76
2022/07/10 04:37:08;;;;;;;14.25;6.78;;;;;;;18.85;80.44;94706.69;5122405;27;20204;-76
2022/07/10 04:39:34;;;;;;;10.02;6.30;;;;;;;19.04;79.10;94706.97;5112680;27;20291;-77
2022/07/10 04:42:01;;;;;;;11.20;6.70;;;;;;;18.99;78.31;94679.50;5134637;27;20184;-76
2022/07/10 04:44:26;;;;;;;7.32;6.18;;;;;;;19.35;78.05;94701.63;5135439;27;20203;-76
2022/07/10 04:46:51;;;;;;;7.05;6.18;;;;;;;19.54;76.67;94689.34;5135443;27;20259;-76
2022/07/10 04:49:17;;;;;;;7.15;5.65;;;;;;;19.88;75.77;94716.25;5117641;27;20175;-76
2022/07/10 04:51:42;;;;;;;8.90;5.97;;;;;;;20.00;74.20;94703.34;5120941;27;20203;-76
2022/07/10 04:54:08;;;;;;;8.07;5.80;;;;;;;20.21;74.10;94717.44;5117333;27;20244;-76
2022/07/10 04:56:33;;;;;;;6.53;5.88;;;;;;;20.41;72.70;94717.38;5114626;28;20740;-76
2022/07/10 04:58:59;;;;;;;8.07;6.22;;;;;;;20.40;72.56;94707.78;5114768;28;20173;-76
2022/07/10 05:01:24;;;;;;;6.78;4.95;;;;;;;20.65;72.11;94715.66;5113689;27;20623;-76
2022/07/10 05:03:50;;;;;;;6.68;5.75;;;;;;;20.96;71.22;94708.22;5110902;28;20180;-75
2022/07/10 05:06:15;;;;;;;6.32;5.10;;;;;;;21.33;69.62;94715.72;5114219;28;20180;-76
2022/07/10 05:08:41;;;;;;;5.78;5.03;;;;;;;21.60;68.51;94717.88;5114411;28;20347;-76
2022/07/10 05:11:06;;;;;;;6.82;5.55;;;;;;;21.72;68.40;94718.28;5127849;27;20634;-76
2022/07/10 05:13:31;;;;;;;6.45;4.85;;;;;;;22.15;68.49;94719.19;5134750;27;20176;-75
2022/07/10 05:15:57;;;;;;;9.77;5.10;;;;;;;22.66;66.08;94715.84;5119134;27;20181;-75
2022/07/10 05:18:22;;;;;;;6.13;4.95;;;;;;;23.11;64.77;94718.97;5114046;28;20177;-75
2022/07/10 05:20:49;;;;;;;10.70;4.55;;;;;;;23.26;62.53;94708.00;5113752;28;20224;-75
2022/07/10 05:23:15;;;;;;;5.78;4.93;;;;;;;23.60;61.72;94719.28;5095664;28;20195;-76
2022/07/10 05:25:41;;;;;;;8.35;5.05;;;;;;;23.81;61.49;94716.22;5113774;28;20176;-76
2022/07/10 05:28:06;;;;;;;5.97;5.38;;;;;;;24.12;62.27;94717.25;5113641;28;20260;-75
2022/07/10 05:30:32;;;;;;;8.63;5.45;;;;;;;24.40;59.81;94726.91;5113676;28;20169;-75
2022/07/10 05:32:58;;;;;;;6.60;5.43;;;;;;;24.74;59.92;94714.91;5113661;28;20204;-75
2022/07/10 05:35:23;;;;;;;7.68;4.80;;;;;;;25.08;58.51;94714.44;5113551;28;20200;-75
2022/07/10 05:37:49;;;;;;;10.27;5.60;;;;;;;25.27;56.75;94716.94;5122642;27;20179;-75
2022/07/10 05:40:14;;;;;;;6.55;4.35;;;;;;;25.53;56.73;94713.31;5128842;27;20213;-75
2022/07/10 05:42:40;;;;;;;5.25;4.65;;;;;;;25.79;55.24;94707.31;5113699;28;20262;-75
2022/07/10 05:45:06;;;;;;;5.57;4.13;;;;;;;26.27;55.70;94710.09;5113518;28;20177;-75
2022/07/10 05:47:33;;;;;;;7.65;4.53;;;;;;;26.58;53.70;94694.59;5113435;28;20165;-76
2022/07/10 05:49:59;;;;;;;10.55;4.47;;;;;;;26.80;53.47;94704.50;5113208;28;20650;-75
2022/07/10 05:52:24;;;;;;;5.47;3.92;;;;;;;27.11;52.29;94708.97;5113602;28;20264;-76
2022/07/10 05:54:50;;;;;;;4.82;4.32;;;;;;;27.57;52.75;94711.81;5113099;28;20289;-75
2022/07/10 05:57:17;;;;;;;6.80;4.05;;;;;;;27.79;49.30;94698.06;5113177;28;20256;-75
2022/07/10 05:59:42;;;;;;;3.35;3.03;;;;;;;27.83;50.12;94705.56;5112967;28;20209;-75
2022/07/10 06:02:08;;;;;;;4.93;3.53;;;;;;;27.91;49.25;94702.81;5112983;28;20262;-75
2022/07/10 06:04:33;;;;;;;6.80;4.03;;;;;;;27.77;48.84;94710.31;5113199;28;20177;-75
2022/07/10 06:06:59;;;;;;;6.03;3.95;;;;;;;27.71;51.37;94701.59;5112882;28;20169;-75
2022/07/10 06:09:24;;;;;;;5.55;4.28;;;;;;;27.72;50.20;94700.50;5113001;28;20177;-75
2022/07/10 06:11:50;;;;;;;5.15;3.65;;;;;;;27.49;50.47;94711.81;5117965;27;20263;-76
2022/07/10 06:14:16;;;;;;;3.50;3.08;;;;;;;27.35;50.54;94696.53;5124107;27;20179;-75
2022/07/10 06:16:41;;;;;;;7.20;5.80;;;;;;;27.26;50.60;94703.88;5133147;27;20187;-75
2022/07/10 06:19:06;;;;;;;6.35;4.50;;;;;;;27.28;51.88;94703.56;5116736;27;20181;-76
2022/07/10 06:21:32;;;;;;;7.22;4.53;;;;;;;27.17;51.17;94696.88;5112707;28;20190;-75
2022/07/10 06:23:57;;;;;;;6.32;4.88;;;;;;;26.82;50.94;94693.34;5129134;27;20183;-75
2022/07/10 06:26:23;;;;;;;6.80;5.68;;;;;;;26.80;53.35;94701.00;5114335;27;20165;-76
2022/07/10 06:28:48;;;;;;;4.55;3.50;;;;;;;26.97;52.57;94698.31;5112718;28;20169;-75
2022/07/10 06:31:14;;;;;;;4.70;3.60;;;;;;;27.09;52.60;94695.75;5112648;28;20934;-75
2022/07/10 06:33:39;;;;;;;3.40;3.10;;;;;;;27.28;52.15;94682.72;5122373;27;20176;-75
2022/07/10 06:36:05;;;;;;;4.68;3.53;;;;;;;27.22;50.25;94691.31;5133330;27;20241;-76
2022/07/10 06:38:31;;;;;;;3.72;3.42;;;;;;;26.74;49.71;94669.81;5132970;27;20651;-75
2022/07/10 06:40:56;;;;;;;4.18;3.17;;;;;;;25.36;53.46;94682.75;5114214;27;20212;-75
2022/07/10 06:43:22;;;;;;;5.63;3.42;;;;;;;24.77;57.22;94681.97;5132733;27;20181;-75
2022/07/10 06:45:48;;;;;;;5.72;4.50;;;;;;;24.63;57.10;94684.72;5132382;27;20168;-75
2022/07/10 06:48:14;;;;;;;4.47;3.20;;;;;;;24.67;56.62;94685.69;5132588;27;21880;-75
2022/07/10 06:50:40;;;;;;;4.75;3.67;;;;;;;24.56;57.31;94681.63;5132438;27;20180;-75
2022/07/10 06:53:06;;;;;;;8.05;3.13;;;;;;;24.55;57.11;94673.88;5132454;27;20179;-75
2022/07/10 06:55:32;;;;;;;8.68;4.25;;;;;;;24.62;56.98;94674.25;5115096;27;20180;-75
2022/07/10 06:57:58;;;;;;;4.10;3.63;;;;;;;24.86;58.86;94680.16;5118506;27;20591;-75
2022/07/10 07:00:23;;;;;;;4.05;3.50;;;;;;;25.02;57.08;94675.25;5111922;28;20205;-76
2022/07/10 07:02:49;;;;;;;5.13;4.45;;;;;;;25.18;56.60;94679.16;5124693;27;20259;-76
2022/07/10 07:05:15;;;;;;;6.65;4.40;;;;;;;25.27;54.72;94671.94;5122303;27;20173;-75
2022/07/10 07:07:41;;;;;;;7.82;5.03;;;;;;;24.93;56.45;94632.06;5111677;28;20183;-76
2022/07/10 07:10:08;;;;;;;11.48;5.95;;;;;;;25.13;56.98;94673.91;5093739;28;20646;-75
2022/07/10 07:12:33;;;;;;;4.93;4.10;;;;;;;24.98;56.13;94675.06;5119519;27;20176;-75
2022/07/10 07:14:59;;;;;;;7.50;4.22;;;;;;;25.02;58.34;94677.94;5132406;27;20206;-75
2022/07/10 07:17:33;;;;;;;5.28;3.97;;;;;;;25.34;57.63;94672.28;5127817;27;20556;-76
2022/07/10 07:25:31;;;;;;;5.68;3.72;;;;;;;26.03;54.34;94672.69;5122670;27;20566;-76
2022/07/10 07:27:57;;;;;;;4.20;3.00;;;;;;;26.25;52.86;94650.19;5121998;27;20177;-76
2022/07/10 07:30:22;;;;;;;5.13;2.92;;;;;;;26.32;54.07;94674.03;5111720;28;20649;-76
2022/07/10 07:32:48;;;;;;;8.50;2.95;;;;;;;26.31;51.59;94665.16;5126997;27;20630;-76
2022/07/10 07:35:15;;;;;;;3.95;2.75;;;;;;;26.45;55.53;94673.13;5128909;27;20266;-75
2022/07/10 07:37:42;;;;;;;4.32;2.80;;;;;;;26.92;52.59;94668.75;5097384;28;20173;-77
2022/07/10 07:40:10;;;;;;;3.05;2.53;;;;;;;27.29;50.87;94675.41;5096891;28;20221;-75
2022/07/10 07:42:36;;;;;;;10.10;3.58;;;;;;;27.54;49.84;94674.59;5096102;27;20185;-74
2022/07/10 07:45:01;;;;;;;4.55;2.97;;;;;;;27.65;50.64;94667.72;5110384;27;20907;-75
2022/07/10 07:47:27;;;;;;;6.20;3.15;;;;;;;27.81;48.78;94659.88;5102825;27;20189;-76
2022/07/10 07:49:53;;;;;;;4.40;2.97;;;;;;;28.12;49.39;94662.28;5096641;27;20260;-76
2022/07/10 07:52:18;;;;;;;5.10;2.70;;;;;;;28.33;50.69;94668.59;5104705;28;20256;-76
2022/07/10 07:54:43;;;;;;;4.30;2.95;;;;;;;28.50;47.41;94656.84;5099777;28;20178;-76
2022/07/10 07:57:09;;;;;;;4.47;2.78;;;;;;;28.54;46.36;94625.28;5099006;28;20199;-76
2022/07/10 07:59:34;;;;;;;7.43;2.83;;;;;;;28.82;46.74;94666.22;5109622;27;20196;-76
2022/07/10 08:02:00;;;;;;;6.82;2.65;;;;;;;28.63;45.07;94642.25;5104234;28;20188;-77
2022/07/10 08:04:26;;;;;;;4.00;2.50;;;;;;;28.20;45.82;94655.25;5104877;27;20186;-78
2022/07/10 08:06:52;;;;;;;2.80;2.60;;;;;;;27.96;47.27;94653.13;5096958;28;20627;-76
2022/07/10 08:09:20;;;;;;;8.07;2.30;;;;;;;27.86;49.28;94653.47;5099695;28;20180;-76
2022/07/10 08:11:46;;;;;;;4.00;3.35;;;;;;;28.05;47.97;94637.63;5105174;28;20180;-75
2022/07/10 08:14:12;;;;;;;5.88;2.15;;;;;;;27.83;47.28;94648.72;5103601;28;20625;-75
2022/07/10 08:16:38;;;;;;;2.67;2.30;;;;;;;27.54;47.33;94649.44;5099786;28;20180;-76
2022/07/10 08:19:03;;;;;;;6.28;2.67;;;;;;;27.73;47.45;94633.63;5094934;28;20178;-76
2022/07/10 08:21:30;;;;;;;6.25;2.78;;;;;;;27.98;47.62;94653.59;5100296;28;21254;-76
2022/07/10 08:23:55;;;;;;;4.68;2.90;;;;;;;28.21;47.28;94654.94;5099065;28;20189;-75
2022/07/10 08:26:21;;;;;;;4.78;2.72;;;;;;;28.57;46.49;94656.31;5107825;28;20188;-77
2022/07/10 08:28:46;;;;;;;2.55;2.35;;;;;;;28.61;46.02;94657.25;5110251;28;20180;-77
2022/07/10 08:31:11;;;;;;;5.03;2.70;;;;;;;28.77;44.83;94658.28;5110995;28;20251;-77
2022/07/10 08:33:37;;;;;;;6.18;2.90;;;;;;;28.98;47.66;94655.56;5110243;28;20626;-76
2022/07/10 08:36:04;;;;;;;6.25;3.22;;;;;;;29.16;44.42;94659.72;5107124;28;20212;-76
2022/07/10 08:38:29;;;;;;;4.88;2.42;;;;;;;28.60;44.75;94655.66;5102345;28;20189;-76
2022/07/10 08:40:59;;;;;;;6.55;2.47;;;;;;;28.63;45.90;94655.78;5099247;28;20609;-76
2022/07/10 08:43:24;;;;;;;5.03;2.25;;;;;;;28.17;46.34;94656.72;5098380;28;20181;-76
2022/07/10 08:45:53;;;;;;;3.55;2.67;;;;;;;28.28;47.31;94641.66;5101437;28;20177;-76
2022/07/10 08:48:23;;;;;;;4.75;3.95;;;;;;;28.30;46.45;94663.00;5101442;28;21927;-75
2022/07/10 08:50:52;;;;;;;2.83;2.38;;;;;;;28.06;44.47;94658.97;5082262;28;20176;-76
2022/07/10 08:53:30;;;;;;;4.85;3.22;;;;;;;27.45;46.08;94640.53;5093103;28;20174;-78
2022/07/10 08:55:55;;;;;;;2.85;2.28;;;;;;;26.79;45.49;94651.56;5102611;28;20186;-76
2022/07/10 08:58:22;;;;;;;6.35;2.30;;;;;;;26.52;49.59;94641.84;5102340;28;20193;-77
2022/07/10 09:00:48;;;;;;;3.13;2.42;;;;;;;26.46;50.42;94620.72;5101116;28;20307;-76
2022/07/10 09:03:13;;;;;;;4.32;3.55;;;;;;;26.29;48.52;94614.16;5103900;28;20279;-80
2022/07/10 09:05:39;;;;;;;8.80;3.92;;;;;;;26.56;49.27;94650.09;5108572;28;20180;-79
2022/07/10 09:08:20;;;;;;;9.07;4.07;;;;;;;26.60;49.91;94645.66;5104992;28;20275;-78
2022/07/10 09:10:46;;;;;;;5.30;2.67;;;;;;;26.71;51.22;94646.94;5106078;28;20911;-78
2022/07/10 09:13:11;;;;;;;4.57;2.75;;;;;;;27.14;49.97;94646.97;5099419;28;20251;-78
2022/07/10 09:15:36;;;;;;;6.40;3.08;;;;;;;27.27;48.69;94639.78;5094796;28;20633;-76
2022/07/10 09:18:05;;;;;;;12.93;2.42;;;;;;;27.28;48.51;94623.22;5108951;28;20209;-76
2022/07/10 09:20:37;;;;;;;5.10;2.63;;;;;;;27.19;48.70;94635.97;5103424;28;20198;-76
2022/07/10 09:23:22;;;;;;;5.93;3.03;;;;;;;27.09;47.75;94630.91;5105950;27;20190;-77
2022/07/10 09:25:50;;;;;;;3.67;2.47;;;;;;;26.97;47.81;94628.06;5113442;27;20181;-76
2022/07/10 09:28:20;;;;;;;7.70;3.05;;;;;;;26.85;48.65;94620.56;5112538;28;20630;-76
2022/07/10 09:30:46;;;;;;;6.82;2.33;;;;;;;26.52;47.58;94628.34;5102825;28;20252;-76
2022/07/10 09:33:29;;;;;;;3.97;2.15;;;;;;;26.27;50.62;94624.50;5098657;28;20182;-77
2022/07/10 09:36:05;;;;;;;5.10;3.00;;;;;;;26.15;48.59;94618.88;5109932;27;20219;-76
2022/07/10 09:38:43;;;;;;;4.45;2.40;;;;;;;26.35;51.97;94624.81;5113248;28;20188;-75
2022/07/10 09:41:14;;;;;;;4.47;2.30;;;;;;;26.70;49.59;94622.94;5087641;28;20614;-76
2022/07/10 09:43:51;;;;;;;4.45;2.45;;;;;;;26.98;49.81;94618.84;5087491;28;20166;-76
2022/07/10 09:46:18;;;;;;;2.15;2.00;;;;;;;27.21;49.19;94612.13;5088471;28;20173;-76
2022/07/10 09:48:44;;;;;;;5.22;2.83;;;;;;;27.46;47.20;94615.06;5089639;28;20185;-76
2022/07/10 09:51:10;;;;;;;2.40;2.20;;;;;;;27.45;45.70;94616.19;5092753;28;20166;-76
2022/07/10 09:53:44;;;;;;;5.75;2.33;;;;;;;27.48;46.55;94610.94;5087854;28;20169;-77
2022/07/10 09:56:13;;;;;;;5.97;2.83;;;;;;;27.55;46.61;94613.97;5090389;28;20748;-76
2022/07/10 09:58:39;;;;;;;3.88;2.97;;;;;;;27.61;45.32;94603.75;5090245;28;20178;-76
2022/07/10 10:01:06;;;;;;;1.90;1.80;;;;;;;27.54;46.79;94608.88;5084057;28;20205;-76
2022/07/10 10:03:39;;;;;;;6.55;4.45;;;;;;;27.38;45.85;94616.69;5085096;28;20720;-76
2022/07/10 10:06:11;;;;;;;2.80;2.03;;;;;;;27.08;47.03;94612.28;5089906;28;20610;-77
2022/07/10 10:08:50;;;;;;;4.75;2.10;;;;;;;26.91;47.42;94613.09;5091736;28;20174;-76
2022/07/10 10:11:23;;;;;;;5.05;2.00;;;;;;;27.03;51.42;94616.75;5090186;28;20166;-76
2022/07/10 10:13:49;;;;;;;3.08;2.00;;;;;;;27.21;49.27;94609.41;5085030;28;20201;-75
2022/07/10 10:16:15;;;;;;;2.40;2.15;;;;;;;27.46;47.82;94610.47;5084854;28;20231;-75
2022/07/10 10:21:28;;;;;;;5.13;3.65;;;;;;;27.16;47.34;94600.66;5082224;28;20293;-80
2022/07/10 10:23:58;;;;;;;4.88;2.83;;;;;;;26.98;47.32;94614.22;5092323;28;20173;-77
2022/07/10 10:26:26;;;;;;;5.80;2.75;;;;;;;26.74;47.62;94611.19;5085364;28;20200;-76
2022/07/10 10:28:53;;;;;;;3.28;2.40;;;;;;;26.45;48.37;94605.63;5079543;28;20965;-75
2022/07/10 10:31:20;;;;;;;5.20;2.80;;;;;;;26.35;48.84;94604.03;5083553;28;20231;-75
2022/07/10 10:33:46;;;;;;;2.30;2.10;;;;;;;26.02;48.83;94603.63;5077962;28;20264;-76
2022/07/10 10:36:14;;;;;;;4.55;2.50;;;;;;;25.72;49.98;94599.88;5089319;28;20623;-75
2022/07/10 10:38:53;;;;;;;6.18;2.35;;;;;;;25.44;50.82;94591.16;5088693;28;20178;-76
2022/07/10 10:41:31;;;;;;;5.28;2.67;;;;;;;25.51;49.35;94598.81;5095557;27;20234;-75
2022/07/10 10:44:21;;;;;;;4.95;2.05;;;;;;;25.41;48.32;94596.38;5102593;27;20843;-76
2022/07/10 10:47:01;;;;;;;4.53;2.38;;;;;;;25.20;52.06;94582.63;5086407;27;20364;-75
2022/07/10 10:49:47;;;;;;;6.18;2.13;;;;;;;25.38;51.61;94592.41;5097367;27;20531;-76
2022/07/10 10:52:15;;;;;;;5.22;2.88;;;;;;;25.54;53.08;94598.19;5097320;28;20196;-76
2022/07/10 10:57:17;;;;;;;10.90;3.17;;;;;;;25.91;52.39;94588.81;5183834;23;20566;-74
2022/07/10 10:59:55;;;;;;;7.30;2.30;;;;;;;26.20;51.33;94589.06;5019070;28;20208;-74
2022/07/10 11:02:29;;;;;;;4.10;2.00;;;;;;;26.40;47.81;94592.25;5020964;28;20187;-74
2022/07/10 11:05:22;;;;;;;4.55;2.20;;;;;;;26.50;48.52;94583.84;5022830;28;20183;-74
2022/07/10 11:08:04;;;;;;;7.85;2.42;;;;;;;26.57;47.71;94582.25;5024196;28;20558;-74
2022/07/10 11:10:38;;;;;;;3.45;2.20;;;;;;;26.70;49.33;94572.44;5027153;28;20176;-74
2022/07/10 11:13:09;;;;;;;4.22;2.58;;;;;;;27.11;50.59;94577.31;5022999;28;20176;-74
2022/07/10 11:15:43;;;;;;;2.92;2.40;;;;;;;27.31;48.33;94573.94;5025978;28;20180;-77
2022/07/10 11:18:12;;;;;;;2.20;2.00;;;;;;;27.17;45.56;94562.50;5029772;28;20234;-75
2022/07/10 11:20:41;;;;;;;4.45;2.00;;;;;;;26.89;48.20;94588.31;5035349;28;20208;-76
2022/07/10 11:23:40;;;;;;;4.30;2.30;;;;;;;26.86;48.14;94580.81;5041907;28;20175;-80
2022/07/10 11:26:08;;;;;;;3.78;2.10;;;;;;;26.87;50.54;94556.19;5029561;28;20270;-78
2022/07/10 11:28:42;;;;;;;3.78;2.35;;;;;;;27.06;50.21;94576.69;5023866;28;20175;-76
2022/07/10 11:31:07;;;;;;;5.32;2.10;;;;;;;27.04;47.80;94563.50;5033393;28;20178;-78
2022/07/10 11:33:42;;;;;;;8.48;2.08;;;;;;;27.10;47.63;94578.44;5035075;28;20183;-78
2022/07/10 11:36:13;;;;;;;8.38;2.40;;;;;;;26.82;48.30;94556.34;5027205;28;20175;-76
2022/07/10 11:38:41;;;;;;;2.90;2.13;;;;;;;26.93;48.75;94573.06;5035388;28;20187;-76
2022/07/10 11:41:23;;;;;;;6.53;2.50;;;;;;;26.97;50.28;94563.22;5017388;28;20717;-75
2022/07/10 11:43:48;;;;;;;8.50;2.25;;;;;;;27.07;49.75;94572.88;5038772;28;20190;-78